createdAt,value
2023-05-19T00:00:10.143Z,15.88
2023-05-19T00:02:36.447Z,15.85
2023-05-19T00:05:02.783Z,15.84
2023-05-19T00:07:29.118Z,15.81
2023-05-19T00:09:55.432Z,15.79
2023-05-19T00:12:21.686Z,15.77
2023-05-19T00:14:48.033Z,15.80
2023-05-19T00:17:14.296Z,15.77
2023-05-19T00:19:40.527Z,15.74
2023-05-19T00:22:06.820Z,15.70
2023-05-19T00:24:33.068Z,15.68
2023-05-19T00:26:59.414Z,15.61
2023-05-19T00:29:25.712Z,15.60
2023-05-19T00:31:52.043Z,15.56
2023-05-19T00:34:18.428Z,15.52
2023-05-19T00:36:44.717Z,15.45
2023-05-19T00:39:10.983Z,15.39
2023-05-19T00:41:37.281Z,15.30
2023-05-19T00:44:03.623Z,15.18
2023-05-19T00:46:29.947Z,15.14
2023-05-19T00:48:56.308Z,15.13
2023-05-19T00:51:22.706Z,15.08
2023-05-19T00:53:49.105Z,15.07
2023-05-19T00:56:15.516Z,15.11
2023-05-19T00:58:41.744Z,15.16
2023-05-19T01:01:08.065Z,15.16
2023-05-19T01:03:34.509Z,15.12
2023-05-19T01:06:00.984Z,15.07
2023-05-19T01:08:27.330Z,15.02
2023-05-19T01:10:53.638Z,14.98
2023-05-19T01:13:19.966Z,14.96
2023-05-19T01:15:46.279Z,14.94
2023-05-19T01:18:12.595Z,14.90
2023-05-19T01:20:38.937Z,14.84
2023-05-19T01:23:05.263Z,14.82
2023-05-19T01:25:31.548Z,14.81
2023-05-19T01:27:57.831Z,14.79
2023-05-19T01:30:24.156Z,14.79
2023-05-19T01:32:50.593Z,14.78
2023-05-19T01:35:17.011Z,14.75
2023-05-19T01:37:43.327Z,14.67
2023-05-19T01:40:09.648Z,14.64
2023-05-19T01:42:35.977Z,14.62
2023-05-19T01:45:02.288Z,14.59
2023-05-19T01:47:28.581Z,14.58
2023-05-19T01:49:54.835Z,14.54
2023-05-19T01:52:21.152Z,14.50
2023-05-19T01:54:47.424Z,14.48
2023-05-19T01:57:13.772Z,14.44
2023-05-19T01:59:40.047Z,14.44
2023-05-19T02:02:06.285Z,14.39
2023-05-19T02:04:32.704Z,14.34
2023-05-19T02:06:59.032Z,14.32
2023-05-19T02:09:25.318Z,14.31
2023-05-19T02:11:51.628Z,14.30
2023-05-19T02:14:17.890Z,14.29
2023-05-19T02:16:44.239Z,14.29
2023-05-19T02:19:10.596Z,14.29
2023-05-19T02:21:36.851Z,14.30
2023-05-19T02:24:03.116Z,14.32
2023-05-19T02:26:29.517Z,14.29
2023-05-19T02:28:55.808Z,14.30
2023-05-19T02:31:22.127Z,14.31
2023-05-19T02:33:48.486Z,14.30
2023-05-19T02:36:14.754Z,14.29
2023-05-19T02:38:41.049Z,14.32
2023-05-19T02:41:07.370Z,14.36
2023-05-19T02:43:33.709Z,14.39
2023-05-19T02:46:00.137Z,14.44
2023-05-19T02:48:26.668Z,14.49
2023-05-19T02:50:52.939Z,14.45
2023-05-19T02:53:19.211Z,14.47
2023-05-19T02:55:45.595Z,14.43
2023-05-19T02:58:11.936Z,14.47
2023-05-19T03:00:38.254Z,14.50
2023-05-19T03:03:04.660Z,14.47
2023-05-19T03:05:30.997Z,14.47
2023-05-19T03:07:57.281Z,14.48
2023-05-19T03:10:23.559Z,14.50
2023-05-19T03:12:49.835Z,14.52
2023-05-19T03:15:16.217Z,14.51
2023-05-19T03:17:42.534Z,14.44
2023-05-19T03:20:08.933Z,14.37
2023-05-19T03:22:35.197Z,14.33
2023-05-19T03:25:01.535Z,14.29
2023-05-19T03:27:27.827Z,14.25
2023-05-19T03:29:54.130Z,14.25
2023-05-19T03:32:20.492Z,14.22
2023-05-19T03:34:46.763Z,14.23
2023-05-19T03:37:13.059Z,14.22
2023-05-19T03:39:39.388Z,14.20
2023-05-19T03:42:05.625Z,14.21
2023-05-19T03:44:31.914Z,14.23
2023-05-19T03:46:58.282Z,14.27
2023-05-19T03:49:24.558Z,14.32
2023-05-19T03:51:50.810Z,14.30
2023-05-19T03:54:17.069Z,14.28
2023-05-19T03:56:43.338Z,14.31
2023-05-19T03:59:09.629Z,14.33
2023-05-19T04:01:35.897Z,14.35
2023-05-19T04:04:02.254Z,14.39
2023-05-19T04:06:28.635Z,14.38
2023-05-19T04:08:54.996Z,14.37
2023-05-19T04:11:21.359Z,14.37
2023-05-19T04:13:47.721Z,14.40
2023-05-19T04:16:14.042Z,14.39
2023-05-19T04:18:40.442Z,14.38
2023-05-19T04:21:06.769Z,14.38
2023-05-19T04:23:33.050Z,14.42
2023-05-19T04:25:59.301Z,14.47
2023-05-19T04:28:25.594Z,14.47
2023-05-19T04:30:52.070Z,14.49
2023-05-19T04:33:18.493Z,14.47
2023-05-19T04:35:44.796Z,14.46
2023-05-19T04:38:11.050Z,14.47
2023-05-19T04:40:37.296Z,14.50
2023-05-19T04:43:03.572Z,14.50
2023-05-19T04:45:29.879Z,14.53
2023-05-19T04:47:56.220Z,14.56
2023-05-19T04:50:22.537Z,14.61
2023-05-19T04:52:48.866Z,14.65
2023-05-19T04:55:15.168Z,14.64
2023-05-19T04:57:41.446Z,14.70
2023-05-19T05:00:07.806Z,14.79
2023-05-19T05:02:34.160Z,14.82
2023-05-19T05:05:00.443Z,14.85
2023-05-19T05:07:26.664Z,14.89
2023-05-19T05:09:52.973Z,14.90
2023-05-19T05:12:19.210Z,14.95
2023-05-19T05:14:45.525Z,14.95
2023-05-19T05:17:11.825Z,14.99
2023-05-19T05:19:38.142Z,15.03
2023-05-19T05:22:04.421Z,15.07
2023-05-19T05:24:30.765Z,15.10
2023-05-19T05:26:57.061Z,15.16
2023-05-19T05:29:23.294Z,15.22
2023-05-19T05:31:49.614Z,15.27
2023-05-19T05:34:15.916Z,15.27
2023-05-19T05:36:42.271Z,15.32
2023-05-19T05:39:08.575Z,15.37
2023-05-19T05:41:34.928Z,15.44
2023-05-19T05:44:01.296Z,15.48
2023-05-19T05:46:27.748Z,15.51
2023-05-19T05:48:54.150Z,15.49
2023-05-19T05:51:20.436Z,15.55
2023-05-19T05:53:46.709Z,15.60
2023-05-19T05:56:12.957Z,15.63
2023-05-19T05:58:39.314Z,15.65
2023-05-19T06:01:05.716Z,15.63
2023-05-19T06:03:32.086Z,15.69
2023-05-19T06:05:58.445Z,15.69
2023-05-19T06:08:26.106Z,15.71
2023-05-19T06:10:52.428Z,15.73
2023-05-19T06:13:18.724Z,15.79
2023-05-19T06:15:44.982Z,15.88
2023-05-19T06:18:11.332Z,15.93
2023-05-19T06:20:37.697Z,15.94
2023-05-19T06:23:03.982Z,16.02
2023-05-19T06:25:30.468Z,16.12
2023-05-19T06:27:56.991Z,16.14
2023-05-19T06:30:23.294Z,16.14
2023-05-19T06:32:49.682Z,16.24
2023-05-19T06:35:15.982Z,16.31
2023-05-19T06:37:42.230Z,16.34
2023-05-19T06:40:08.481Z,16.33
2023-05-19T06:42:34.731Z,16.34
2023-05-19T06:45:01.018Z,16.31
2023-05-19T06:47:27.380Z,16.32
2023-05-19T06:49:53.738Z,16.29
2023-05-19T06:52:20.101Z,16.28
2023-05-19T06:54:46.413Z,16.24
2023-05-19T06:57:12.674Z,16.22
2023-05-19T06:59:38.998Z,16.22
2023-05-19T07:02:05.293Z,16.26
2023-05-19T07:04:31.657Z,16.29
2023-05-19T07:06:57.985Z,16.35
2023-05-19T07:09:24.304Z,16.32
2023-05-19T07:11:50.651Z,16.29
2023-05-19T07:14:16.953Z,16.29
2023-05-19T07:16:43.358Z,16.29
2023-05-19T07:19:09.810Z,16.33
2023-05-19T07:21:36.188Z,16.34
2023-05-19T07:24:02.542Z,16.30
2023-05-19T07:26:28.866Z,16.25
2023-05-19T07:28:55.190Z,16.20
2023-05-19T07:31:21.523Z,16.20
2023-05-19T07:33:47.865Z,16.19
2023-05-19T07:36:14.219Z,16.19
2023-05-19T07:38:40.503Z,16.19
2023-05-19T07:41:06.867Z,16.19
2023-05-19T07:43:33.192Z,16.18
2023-05-19T07:45:59.530Z,16.20
2023-05-19T07:48:25.894Z,16.24
2023-05-19T07:50:52.188Z,16.27
2023-05-19T07:53:18.445Z,16.26
2023-05-19T07:55:44.733Z,16.23
2023-05-19T07:58:11.050Z,16.30
2023-05-19T08:00:37.399Z,16.35
2023-05-19T08:03:03.756Z,16.29
2023-05-19T08:05:30.151Z,16.23
2023-05-19T08:07:56.397Z,16.21
2023-05-19T08:10:22.671Z,16.27
2023-05-19T08:12:48.985Z,16.33
2023-05-19T08:15:15.351Z,16.37
2023-05-19T08:17:41.709Z,16.43
2023-05-19T08:20:08.080Z,16.45
2023-05-19T08:22:34.435Z,16.46
2023-05-19T08:25:00.695Z,16.50
2023-05-19T08:27:26.928Z,16.48
2023-05-19T08:29:53.238Z,16.58
2023-05-19T08:32:19.498Z,16.60
2023-05-19T08:34:45.780Z,16.60
2023-05-19T08:37:12.133Z,16.60
2023-05-19T08:39:38.441Z,16.63
2023-05-19T08:42:04.791Z,16.66
2023-05-19T08:44:31.180Z,16.63
2023-05-19T08:46:57.475Z,16.69
2023-05-19T08:49:25.453Z,16.66
2023-05-19T08:51:51.961Z,16.63
2023-05-19T08:54:18.330Z,16.68
2023-05-19T08:56:44.604Z,16.75
2023-05-19T08:59:11.021Z,16.84
2023-05-19T09:04:08.563Z,16.85
2023-05-19T09:06:34.926Z,16.84
2023-05-19T09:09:01.197Z,16.90
2023-05-19T09:11:27.471Z,16.89
2023-05-19T09:13:53.757Z,16.88
2023-05-19T09:16:20.206Z,16.92
2023-05-19T09:18:46.575Z,17.03
2023-05-19T09:21:12.935Z,17.14
2023-05-19T09:23:39.307Z,17.17
2023-05-19T09:26:05.619Z,17.22
2023-05-19T09:28:31.915Z,17.26
2023-05-19T09:30:58.165Z,17.38
2023-05-19T09:33:24.368Z,17.51
2023-05-19T09:35:50.663Z,17.70
2023-05-19T09:38:16.927Z,17.83
2023-05-19T09:40:43.227Z,18.03
2023-05-19T09:43:09.512Z,18.05
2023-05-19T09:45:35.837Z,18.06
2023-05-19T09:48:02.143Z,18.08
2023-05-19T09:50:28.521Z,18.11
2023-05-19T09:52:54.805Z,17.98
2023-05-19T09:55:21.101Z,17.85
2023-05-19T09:57:47.401Z,17.78
2023-05-19T10:00:13.679Z,17.80
2023-05-19T10:02:40.041Z,17.72
2023-05-19T10:05:06.446Z,17.64
2023-05-19T10:07:32.864Z,17.68
2023-05-19T10:09:59.168Z,17.69
2023-05-19T10:12:25.470Z,17.76
2023-05-19T10:14:51.691Z,17.82
2023-05-19T10:17:17.978Z,17.87
2023-05-19T10:19:44.243Z,17.97
2023-05-19T10:22:10.509Z,17.96
2023-05-19T10:24:36.852Z,17.92
2023-05-19T10:27:03.204Z,17.88
2023-05-19T10:29:29.511Z,17.81
2023-05-19T10:31:55.928Z,17.76
2023-05-19T10:34:22.374Z,17.79
2023-05-19T10:36:48.753Z,17.85
2023-05-19T10:39:15.077Z,17.81
2023-05-19T10:41:41.365Z,17.79
2023-05-19T10:44:07.717Z,17.67
2023-05-19T10:46:34.056Z,17.72
2023-05-19T10:49:00.428Z,17.79
2023-05-19T10:51:26.701Z,17.99
2023-05-19T10:53:52.974Z,18.19
2023-05-19T10:56:19.334Z,18.29
2023-05-19T10:58:45.664Z,18.54
2023-05-19T11:01:11.988Z,18.75
2023-05-19T11:03:38.386Z,18.95
2023-05-19T11:06:04.847Z,19.12
2023-05-19T11:08:31.137Z,19.19
2023-05-19T11:10:57.467Z,19.51
2023-05-19T11:13:23.751Z,19.61
2023-05-19T11:15:50.015Z,19.77
2023-05-19T11:18:16.382Z,19.76
2023-05-19T11:20:42.815Z,19.60
2023-05-19T11:23:09.237Z,19.41
2023-05-19T11:25:35.661Z,19.28
2023-05-19T11:28:01.987Z,19.17
2023-05-19T11:30:28.219Z,19.09
2023-05-19T11:32:54.575Z,18.91
2023-05-19T11:35:20.863Z,18.73
2023-05-19T11:37:47.121Z,18.75
2023-05-19T11:40:13.481Z,18.73
2023-05-19T11:42:39.836Z,18.76
2023-05-19T11:45:06.263Z,18.70
2023-05-19T11:47:42.120Z,18.73
2023-05-19T11:50:09.160Z,18.69
2023-05-19T11:52:35.421Z,18.61
2023-05-19T11:55:01.710Z,18.59
2023-05-19T11:57:28.125Z,18.60
2023-05-19T11:59:54.772Z,18.63
2023-05-19T12:02:21.157Z,18.66
2023-05-19T12:04:47.532Z,18.65
2023-05-19T12:07:13.807Z,18.74
2023-05-19T12:09:40.134Z,18.74
2023-05-19T12:12:06.491Z,18.82
2023-05-19T12:14:32.787Z,18.89
2023-05-19T12:16:59.027Z,18.96
2023-05-19T12:19:25.377Z,18.92
2023-05-19T12:21:51.803Z,18.89
2023-05-19T12:24:18.050Z,18.95
2023-05-19T12:26:44.402Z,19.03
2023-05-19T12:29:10.800Z,19.12
2023-05-19T12:31:37.204Z,19.15
2023-05-19T12:34:03.585Z,19.15
2023-05-19T12:36:29.861Z,19.13
2023-05-19T12:38:56.188Z,19.20
2023-05-19T12:41:22.498Z,19.25
2023-05-19T12:43:48.788Z,19.37
2023-05-19T12:46:15.075Z,19.50
2023-05-19T12:48:41.458Z,19.75
2023-05-19T12:51:07.769Z,20.00
2023-05-19T12:53:34.038Z,19.88
2023-05-19T12:56:00.388Z,19.78
2023-05-19T12:58:26.638Z,19.73
2023-05-19T13:00:53.092Z,19.73
2023-05-19T13:03:19.698Z,19.68
2023-05-19T13:05:46.214Z,19.58
2023-05-19T13:08:12.535Z,19.53
2023-05-19T13:10:38.918Z,19.51
2023-05-19T13:13:05.166Z,19.50
2023-05-19T13:15:31.439Z,19.44
2023-05-19T13:17:57.775Z,19.32
2023-05-19T13:20:26.256Z,19.26
2023-05-19T13:22:53.987Z,19.16
2023-05-19T13:25:20.253Z,19.11
2023-05-19T13:27:46.511Z,19.03
2023-05-19T13:30:12.800Z,18.99
2023-05-19T13:32:39.205Z,18.99
2023-05-19T13:35:05.535Z,18.97
2023-05-19T13:37:31.981Z,18.91
2023-05-19T13:40:01.449Z,18.91
2023-05-19T13:42:27.770Z,18.87
2023-05-19T13:44:54.099Z,18.85
2023-05-19T13:47:20.528Z,18.80
2023-05-19T13:49:46.904Z,18.81
2023-05-19T13:52:13.352Z,18.86
2023-05-19T13:54:39.681Z,18.92
2023-05-19T13:57:05.990Z,18.94
2023-05-19T13:59:32.258Z,18.93
2023-05-19T14:01:58.586Z,18.94
2023-05-19T14:04:25.081Z,18.91
2023-05-19T14:06:51.396Z,18.84
2023-05-19T14:09:17.653Z,18.78
2023-05-19T14:11:43.941Z,18.75
2023-05-19T14:14:11.459Z,18.71
2023-05-19T14:16:38.417Z,18.69
2023-05-19T14:19:04.902Z,18.69
2023-05-19T14:21:31.231Z,18.66
2023-05-19T14:23:57.507Z,18.66
2023-05-19T14:26:23.828Z,18.71
2023-05-19T14:28:50.125Z,18.72
2023-05-19T14:31:16.548Z,18.69
2023-05-19T14:33:42.899Z,18.66
2023-05-19T14:36:09.123Z,18.69
2023-05-19T14:38:35.433Z,18.70
2023-05-19T14:41:02.736Z,18.67
2023-05-19T14:43:29.079Z,18.69
2023-05-19T14:45:55.427Z,18.70
2023-05-19T14:48:21.722Z,18.69
2023-05-19T14:50:48.082Z,18.66
2023-05-19T14:53:14.423Z,18.69
2023-05-19T14:55:40.718Z,18.73
2023-05-19T14:58:15.874Z,18.73
2023-05-19T15:00:46.197Z,18.73
2023-05-19T15:03:12.598Z,18.73
2023-05-19T15:05:38.919Z,18.74
2023-05-19T15:08:06.398Z,18.72
2023-05-19T15:10:33.076Z,18.75
2023-05-19T15:12:59.458Z,18.75
2023-05-19T15:15:25.731Z,18.73
2023-05-19T15:17:52.131Z,18.74
2023-05-19T15:20:18.419Z,18.74
2023-05-19T15:22:44.685Z,18.72
2023-05-19T15:25:10.964Z,18.70
2023-05-19T15:27:37.275Z,18.71
2023-05-19T15:30:03.569Z,18.73
2023-05-19T15:32:29.928Z,18.77
2023-05-19T15:34:56.244Z,18.72
2023-05-19T15:37:22.602Z,18.69
2023-05-19T15:39:48.950Z,18.68
2023-05-19T15:42:15.248Z,18.66
2023-05-19T15:44:41.605Z,18.64
2023-05-19T15:47:07.923Z,18.65
2023-05-19T15:49:34.262Z,18.66
2023-05-19T15:52:00.526Z,18.64
2023-05-19T15:54:26.831Z,18.60
2023-05-19T15:56:53.131Z,18.61
2023-05-19T15:59:19.453Z,18.58
2023-05-19T16:01:45.774Z,18.58
2023-05-19T16:04:12.141Z,18.52
2023-05-19T16:06:38.512Z,18.48
2023-05-19T16:09:04.826Z,18.45
2023-05-19T16:11:31.129Z,18.42
2023-05-19T16:13:57.426Z,18.43
2023-05-19T16:16:23.739Z,18.44
2023-05-19T16:18:50.091Z,18.43
2023-05-19T16:21:16.476Z,18.46
2023-05-19T16:23:42.944Z,18.50
2023-05-19T16:26:09.272Z,18.48
2023-05-19T16:28:35.617Z,18.49
2023-05-19T16:31:01.847Z,18.50
2023-05-19T16:33:28.214Z,18.51
2023-05-19T16:35:54.608Z,18.47
2023-05-19T16:38:20.927Z,18.44
2023-05-19T16:40:47.199Z,18.39
2023-05-19T16:43:13.487Z,18.35
2023-05-19T16:45:39.798Z,18.33
2023-05-19T16:48:06.248Z,18.30
2023-05-19T16:50:32.592Z,18.27
2023-05-19T16:52:58.905Z,18.22
2023-05-19T16:55:25.264Z,18.14
2023-05-19T16:57:51.528Z,18.15
2023-05-19T17:00:17.784Z,18.14
2023-05-19T17:02:44.176Z,18.15
2023-05-19T17:05:10.565Z,18.13
2023-05-19T17:07:36.906Z,18.10
2023-05-19T17:10:03.285Z,18.04
2023-05-19T17:12:29.590Z,18.03
2023-05-19T17:14:55.884Z,17.97
2023-05-19T17:17:22.230Z,17.91
2023-05-19T17:19:48.540Z,17.86
2023-05-19T17:22:14.848Z,17.77
2023-05-19T17:24:41.181Z,17.71
2023-05-19T17:27:07.542Z,17.65
2023-05-19T17:29:33.815Z,17.62
2023-05-19T17:32:03.098Z,17.62
2023-05-19T17:34:29.467Z,17.62
2023-05-19T17:36:55.773Z,17.66
2023-05-19T17:39:22.003Z,17.64
2023-05-19T17:41:48.312Z,17.62
2023-05-19T17:44:14.615Z,17.62
2023-05-19T17:46:41.001Z,17.58
2023-05-19T17:49:07.358Z,17.57
2023-05-19T17:51:33.674Z,17.60
2023-05-19T17:53:59.991Z,17.59
2023-05-19T17:56:26.322Z,17.51
2023-05-19T17:58:52.797Z,17.54
2023-05-19T18:01:19.107Z,17.60
2023-05-19T18:03:45.451Z,17.67
2023-05-19T18:06:11.785Z,17.73
2023-05-19T18:08:38.068Z,17.75
2023-05-19T18:11:04.332Z,17.77
2023-05-19T18:13:30.609Z,17.74
2023-05-19T18:15:56.969Z,17.74
2023-05-19T18:18:23.326Z,17.70
2023-05-19T18:20:49.656Z,17.69
2023-05-19T18:23:16.016Z,17.69
2023-05-19T18:25:42.324Z,17.71
2023-05-19T18:28:08.569Z,17.74
2023-05-19T18:30:35.122Z,17.75
2023-05-19T18:33:01.756Z,17.75
2023-05-19T18:35:28.139Z,17.74
2023-05-19T18:37:54.419Z,17.68
2023-05-19T18:40:20.722Z,17.63
2023-05-19T18:42:47.046Z,17.60
2023-05-19T18:45:13.325Z,17.55
2023-05-19T18:47:39.669Z,17.54
2023-05-19T18:50:05.957Z,17.53
2023-05-19T18:52:32.252Z,17.54
2023-05-19T18:54:58.694Z,17.52
2023-05-19T18:57:25.086Z,17.49
2023-05-19T18:59:51.387Z,17.45
2023-05-19T19:02:17.645Z,17.42
2023-05-19T19:04:43.952Z,17.43
2023-05-19T19:07:10.282Z,17.46
2023-05-19T19:09:37.167Z,17.46
2023-05-19T19:12:04.145Z,17.43
2023-05-19T19:14:30.779Z,17.44
2023-05-19T19:16:57.134Z,17.47
2023-05-19T19:19:23.675Z,17.46
2023-05-19T19:21:50.237Z,17.45
2023-05-19T19:24:16.498Z,17.48
2023-05-19T19:26:42.842Z,17.52
2023-05-19T19:29:09.191Z,17.57
2023-05-19T19:31:35.525Z,17.63
2023-05-19T19:34:01.767Z,17.66
2023-05-19T19:36:28.059Z,17.68
2023-05-19T19:38:54.313Z,17.66
2023-05-19T19:41:20.598Z,17.63
2023-05-19T19:43:46.882Z,17.58
2023-05-19T19:46:13.674Z,17.55
2023-05-19T19:48:40.068Z,17.51
2023-05-19T19:51:06.439Z,17.54
2023-05-19T19:53:33.549Z,17.57
2023-05-19T19:55:59.819Z,17.51
2023-05-19T19:58:26.161Z,17.46
2023-05-19T20:00:53.268Z,17.42
2023-05-19T20:03:19.618Z,17.40
2023-05-19T20:05:46.908Z,17.37
2023-05-19T20:08:15.408Z,17.34
2023-05-19T20:10:42.357Z,17.33
2023-05-19T20:13:08.669Z,17.31
2023-05-19T20:15:34.948Z,17.32
2023-05-19T20:18:01.935Z,17.32
2023-05-19T20:20:28.592Z,17.31
2023-05-19T20:22:54.874Z,17.28
2023-05-19T20:25:21.229Z,17.24
2023-05-19T20:27:47.992Z,17.22
2023-05-19T20:30:14.264Z,17.20
2023-05-19T20:32:40.593Z,17.19
2023-05-19T20:35:06.871Z,17.14
2023-05-19T20:37:33.136Z,17.14
2023-05-19T20:39:59.427Z,17.13
2023-05-19T20:42:25.692Z,17.12
2023-05-19T20:44:51.946Z,17.11
2023-05-19T20:47:18.205Z,17.08
2023-05-19T20:49:44.499Z,17.06
2023-05-19T20:52:10.834Z,17.05
2023-05-19T20:54:37.083Z,17.03
2023-05-19T20:57:03.416Z,17.04
2023-05-19T20:59:29.662Z,17.03
2023-05-19T21:01:55.941Z,17.04
2023-05-19T21:04:22.248Z,17.01
2023-05-19T21:06:48.669Z,17.02
2023-05-19T21:09:15.034Z,17.01
2023-05-19T21:11:41.345Z,17.00
2023-05-19T21:14:07.678Z,17.00
2023-05-19T21:16:34.154Z,16.98
2023-05-19T21:19:00.606Z,16.93
2023-05-19T21:21:27.004Z,16.92
2023-05-19T21:23:53.264Z,16.89
2023-05-19T21:26:19.486Z,16.83
2023-05-19T21:28:45.779Z,16.80
2023-05-19T21:31:12.169Z,16.78
2023-05-19T21:33:38.662Z,16.77
2023-05-19T21:36:05.003Z,16.77
2023-05-19T21:38:31.308Z,16.81
2023-05-19T21:40:57.631Z,16.86
2023-05-19T21:43:23.964Z,16.88
2023-05-19T21:45:50.254Z,16.90
2023-05-19T21:48:16.640Z,16.90
2023-05-19T21:50:43.000Z,16.89
2023-05-19T21:53:09.312Z,16.91
2023-05-19T21:55:35.555Z,16.93
2023-05-19T21:58:02.766Z,16.95
2023-05-19T22:00:29.279Z,16.97
2023-05-19T22:02:55.661Z,16.94
2023-05-19T22:05:22.119Z,16.88
2023-05-19T22:07:48.403Z,16.82
2023-05-19T22:10:14.719Z,16.80
2023-05-19T22:12:40.960Z,16.80
2023-05-19T22:15:07.310Z,16.81
2023-05-19T22:17:33.684Z,16.81
2023-05-19T22:19:59.995Z,16.87
2023-05-19T22:22:26.295Z,16.92
2023-05-19T22:24:52.558Z,16.98
2023-05-19T22:27:18.872Z,17.02
2023-05-19T22:29:45.192Z,17.06
2023-05-19T22:32:11.467Z,17.12
2023-05-19T22:34:37.720Z,17.16
2023-05-19T22:37:04.018Z,17.21
2023-05-19T22:39:30.285Z,17.25
2023-05-19T22:41:56.587Z,17.26
2023-05-19T22:44:22.901Z,17.27
2023-05-19T22:46:49.154Z,17.28
2023-05-19T22:49:15.460Z,17.27
2023-05-19T22:51:41.793Z,17.24
2023-05-19T22:54:08.054Z,17.24
2023-05-19T22:56:34.410Z,17.23
2023-05-19T22:59:00.672Z,17.22
2023-05-19T23:01:27.065Z,17.18
2023-05-19T23:03:53.403Z,17.12
2023-05-19T23:06:19.683Z,17.07
2023-05-19T23:08:46.718Z,16.99
2023-05-19T23:11:13.259Z,16.91
2023-05-19T23:13:39.563Z,16.84
2023-05-19T23:16:05.809Z,16.78
2023-05-19T23:18:32.132Z,16.73
2023-05-19T23:20:58.456Z,16.67
2023-05-19T23:23:24.800Z,16.63
2023-05-19T23:25:51.066Z,16.62
2023-05-19T23:28:17.417Z,16.59
2023-05-19T23:30:43.690Z,16.58
2023-05-19T23:33:10.050Z,16.56
2023-05-19T23:35:36.603Z,16.52
2023-05-19T23:38:02.994Z,16.53
2023-05-19T23:40:29.296Z,16.51
2023-05-19T23:42:55.752Z,16.51
2023-05-19T23:45:22.025Z,16.51
2023-05-19T23:47:48.441Z,16.56
2023-05-19T23:50:14.718Z,16.56
2023-05-19T23:52:40.994Z,16.58
2023-05-19T23:55:07.415Z,16.61
2023-05-19T23:57:33.777Z,16.63
